createdAt,value
2018-07-10T00:02:38.869Z,94709.38
2018-07-10T00:06:24.128Z,94704.11
2018-07-10T00:11:40.299Z,94699.35
2018-07-10T00:14:09.089Z,94695.47
2018-07-10T00:16:37.937Z,94689.70
2018-07-10T00:19:06.894Z,94690.28
2018-07-10T00:21:35.646Z,94685.87
2018-07-10T00:24:05.475Z,94683.80
2018-07-10T00:26:34.710Z,94676.22
2018-07-10T00:29:03.450Z,94672.30
2018-07-10T00:31:32.274Z,94666.84
2018-07-10T00:34:01.035Z,94665.36
2018-07-10T00:36:29.860Z,94663.83
2018-07-10T00:39:07.360Z,94660.66
2018-07-10T00:41:38.491Z,94659.09
2018-07-10T00:44:08.001Z,94656.22
2018-07-10T00:46:38.471Z,94653.38
2018-07-10T00:49:07.303Z,94651.02
2018-07-10T00:51:39.385Z,94653.61
2018-07-10T00:54:08.379Z,94650.06
2018-07-10T00:56:37.267Z,94653.97
2018-07-10T00:59:06.907Z,94649.33
2018-07-10T01:01:35.969Z,94643.70
2018-07-10T01:04:04.822Z,94647.60
2018-07-10T01:06:34.081Z,94643.53
2018-07-10T01:09:03.150Z,94642.89
2018-07-10T01:11:32.790Z,94643.36
2018-07-10T01:14:01.774Z,94642.89
2018-07-10T01:16:39.261Z,94637.88
2018-07-10T01:19:14.325Z,94639.10
2018-07-10T01:21:43.784Z,94634.44
2018-07-10T01:24:12.707Z,94644.03
2018-07-10T01:26:42.369Z,94645.61
2018-07-10T01:29:21.585Z,94644.03
2018-07-10T01:31:52.573Z,94648.52
2018-07-10T01:34:21.849Z,94645.59
2018-07-10T01:36:51.077Z,94641.85
2018-07-10T01:39:19.926Z,94644.97
2018-07-10T01:41:48.962Z,94649.14
2018-07-10T01:44:17.833Z,94655.70
2018-07-10T01:46:46.592Z,94654.33
2018-07-10T01:49:15.486Z,94655.00
2018-07-10T01:51:44.420Z,94660.73
2018-07-10T01:54:13.394Z,94656.42
2018-07-10T01:56:42.219Z,94655.54
2018-07-10T01:59:11.245Z,94656.98
2018-07-10T02:01:40.087Z,94654.11
2018-07-10T02:04:09.128Z,94652.80
2018-07-10T02:06:38.494Z,94647.73
2018-07-10T02:09:07.435Z,94655.52
2018-07-10T02:11:36.298Z,94659.72
2018-07-10T02:14:05.167Z,94651.67
2018-07-10T02:16:34.178Z,94650.27
2018-07-10T02:19:03.602Z,94652.76
2018-07-10T02:21:32.478Z,94650.92
2018-07-10T02:24:01.378Z,94646.95
2018-07-10T02:26:30.286Z,94644.98
2018-07-10T02:28:59.182Z,94643.66
2018-07-10T02:31:28.049Z,94646.73
2018-07-10T02:33:56.922Z,94642.48
2018-07-10T02:36:25.892Z,94642.56
2018-07-10T02:38:59.574Z,94640.89
2018-07-10T02:41:28.466Z,94638.22
2018-07-10T02:44:03.844Z,94641.58
2018-07-10T02:46:34.371Z,94641.16
2018-07-10T02:49:10.180Z,94646.47
2018-07-10T02:51:42.715Z,94648.30
2018-07-10T02:54:11.951Z,94644.23
2018-07-10T02:56:41.961Z,94643.28
2018-07-10T02:59:11.136Z,94643.28
2018-07-10T03:01:40.111Z,94648.82
2018-07-10T03:04:09.035Z,94644.52
2018-07-10T03:06:37.939Z,94648.56
2018-07-10T03:09:06.938Z,94650.23
2018-07-10T03:11:37.127Z,94650.64
2018-07-10T03:14:08.616Z,94652.30
2018-07-10T03:16:37.783Z,94655.34
2018-07-10T03:19:08.011Z,94656.41
2018-07-10T03:21:36.798Z,94657.47
2018-07-10T03:24:05.678Z,94659.66
2018-07-10T03:26:34.520Z,94651.06
2018-07-10T03:29:03.649Z,94657.39
2018-07-10T03:31:32.566Z,94659.34
2018-07-10T03:34:01.395Z,94659.02
2018-07-10T03:36:30.274Z,94659.68
2018-07-10T03:38:59.361Z,94661.08
2018-07-10T03:41:28.754Z,94659.06
2018-07-10T03:43:57.719Z,94660.30
2018-07-10T03:46:26.631Z,94662.50
2018-07-10T03:48:56.366Z,94653.29
2018-07-10T03:51:26.265Z,94657.91
2018-07-10T03:53:55.479Z,94655.19
2018-07-10T03:56:24.479Z,94659.55
2018-07-10T03:58:55.758Z,94661.32
2018-07-10T04:01:26.271Z,94658.03
2018-07-10T04:03:55.377Z,94661.59
2018-07-10T04:06:24.353Z,94667.81
2018-07-10T04:08:53.281Z,94661.05
2018-07-10T04:11:22.387Z,94660.31
2018-07-10T04:13:51.425Z,94659.12
2018-07-10T04:16:20.542Z,94663.95
2018-07-10T04:18:49.427Z,94664.81
2018-07-10T04:21:22.429Z,94675.50
2018-07-10T04:23:57.057Z,94674.45
2018-07-10T04:26:26.051Z,94677.25
2018-07-10T04:29:29.408Z,94674.61
2018-07-10T04:32:00.088Z,94675.69
2018-07-10T04:34:30.367Z,94674.25
2018-07-10T04:37:16.024Z,94677.98
2018-07-10T04:39:45.477Z,94674.73
2018-07-10T04:42:30.995Z,94684.20
2018-07-10T04:45:15.022Z,94680.03
2018-07-10T04:47:50.603Z,94679.27
2018-07-10T04:50:26.126Z,94682.77
2018-07-10T04:53:02.222Z,94682.58
2018-07-10T04:55:32.794Z,94687.48
2018-07-10T04:58:12.080Z,94687.13
2018-07-10T05:00:46.728Z,94693.72
2018-07-10T05:03:17.552Z,94691.10
2018-07-10T05:05:47.026Z,94695.00
2018-07-10T05:08:18.720Z,94694.00
2018-07-10T05:10:48.507Z,94699.87
2018-07-10T05:13:17.750Z,94697.53
2018-07-10T05:15:50.206Z,94703.13
2018-07-10T05:18:19.173Z,94700.47
2018-07-10T05:20:48.043Z,94709.23
2018-07-10T05:23:18.412Z,94708.22
2018-07-10T05:25:53.896Z,94703.76
2018-07-10T05:28:22.801Z,94709.91
2018-07-10T05:30:51.820Z,94713.41
2018-07-10T05:33:22.962Z,94711.80
2018-07-10T05:35:52.094Z,94718.64
2018-07-10T05:38:30.946Z,94710.39
2018-07-10T05:41:00.627Z,94714.33
2018-07-10T05:43:29.565Z,94711.37
2018-07-10T05:45:58.443Z,94714.34
2018-07-10T05:48:28.745Z,94714.58
2018-07-10T05:50:58.114Z,94708.78
2018-07-10T05:53:27.025Z,94713.30
2018-07-10T05:55:55.917Z,94709.03
2018-07-10T05:58:24.730Z,94715.59
2018-07-10T06:00:53.673Z,94711.89
2018-07-10T06:03:22.552Z,94715.87
2018-07-10T06:05:51.453Z,94712.45
2018-07-10T06:08:20.237Z,94715.10
2018-07-10T06:10:49.192Z,94716.47
2018-07-10T06:13:18.157Z,94714.51
2018-07-10T06:15:47.049Z,94712.17
2018-07-10T06:18:15.918Z,94711.76
2018-07-10T06:20:44.849Z,94712.42
2018-07-10T06:23:13.803Z,94709.30
2018-07-10T06:25:42.750Z,94708.91
2018-07-10T06:28:16.689Z,94706.56
2018-07-10T06:30:45.589Z,94709.34
2018-07-10T06:33:23.931Z,94706.41
2018-07-10T06:36:05.005Z,94707.95
2018-07-10T06:38:33.906Z,94707.77
2018-07-10T06:41:03.030Z,94705.42
2018-07-10T06:43:44.063Z,94713.00
2018-07-10T06:46:12.998Z,94713.25
2018-07-10T06:48:44.787Z,94710.99
2018-07-10T06:51:19.098Z,94710.63
2018-07-10T06:53:49.801Z,94713.13
2018-07-10T06:56:26.143Z,94711.78
2018-07-10T06:58:55.326Z,94708.89
2018-07-10T07:01:25.025Z,94712.17
2018-07-10T07:04:00.116Z,94712.27
2018-07-10T07:06:29.441Z,94713.83
2018-07-10T07:08:58.338Z,94705.25
2018-07-10T07:11:27.335Z,94703.97
2018-07-10T07:13:56.270Z,94697.89
2018-07-10T07:16:25.203Z,94703.14
2018-07-10T07:18:54.125Z,94703.44
2018-07-10T07:21:22.942Z,94697.11
2018-07-10T07:23:51.978Z,94701.97
2018-07-10T07:26:21.210Z,94711.82
2018-07-10T07:28:50.052Z,94708.64
2018-07-10T07:31:19.194Z,94696.41
2018-07-10T07:33:48.050Z,94703.63
2018-07-10T07:36:16.937Z,94696.20
2018-07-10T07:38:45.831Z,94699.41
2018-07-10T07:41:14.863Z,94703.91
2018-07-10T07:43:43.887Z,94707.12
2018-07-10T07:46:13.271Z,94701.77
2018-07-10T07:48:42.125Z,94701.44
2018-07-10T07:51:11.035Z,94702.76
2018-07-10T07:53:39.906Z,94701.48
2018-07-10T07:56:08.824Z,94693.52
2018-07-10T07:58:37.728Z,94694.06
2018-07-10T08:01:06.572Z,94699.38
2018-07-10T08:03:36.343Z,94700.49
2018-07-10T08:06:05.697Z,94697.79
2018-07-10T08:08:34.663Z,94698.58
2018-07-10T08:11:03.729Z,94703.36
2018-07-10T08:13:32.736Z,94701.76
2018-07-10T08:16:01.729Z,94697.20
2018-07-10T08:18:30.798Z,94710.81
2018-07-10T08:20:59.997Z,94710.30
2018-07-10T08:23:28.931Z,94708.73
2018-07-10T08:25:58.886Z,94710.10
2018-07-10T08:28:27.838Z,94711.37
2018-07-10T08:30:56.772Z,94707.12
2018-07-10T08:33:25.763Z,94712.95
2018-07-10T08:35:54.857Z,94716.94
2018-07-10T08:38:32.445Z,94710.53
2018-07-10T08:41:01.428Z,94709.19
2018-07-10T08:43:31.142Z,94708.92
2018-07-10T08:46:00.334Z,94700.14
2018-07-10T08:48:29.302Z,94700.73
2018-07-10T08:50:59.404Z,94696.72
2018-07-10T08:53:29.024Z,94695.39
2018-07-10T08:55:58.014Z,94694.86
2018-07-10T08:58:26.998Z,94684.47
2018-07-10T09:00:55.970Z,94689.48
2018-07-10T09:03:25.100Z,94679.25
2018-07-10T09:05:53.982Z,94670.12
2018-07-10T09:08:22.958Z,94684.06
2018-07-10T09:10:51.891Z,94685.22
2018-07-10T09:13:20.878Z,94689.79
2018-07-10T09:15:49.806Z,94698.34
2018-07-10T09:18:18.726Z,94699.41
2018-07-10T09:20:50.375Z,94691.14
2018-07-10T09:23:20.756Z,94695.39
2018-07-10T09:25:58.068Z,94698.05
2018-07-10T09:28:28.858Z,94694.34
2018-07-10T09:30:57.856Z,94699.64
2018-07-10T09:33:26.773Z,94698.83
2018-07-10T09:35:56.144Z,94694.31
2018-07-10T09:38:25.114Z,94689.77
2018-07-10T09:40:54.770Z,94696.66
2018-07-10T09:43:25.246Z,94684.62
2018-07-10T09:45:54.198Z,94678.72
2018-07-10T09:48:23.240Z,94679.26
2018-07-10T09:50:52.425Z,94688.33
2018-07-10T09:53:21.791Z,94683.59
2018-07-10T09:55:50.733Z,94682.03
2018-07-10T09:58:21.823Z,94676.14
2018-07-10T10:00:57.795Z,94678.75
2018-07-10T10:03:26.746Z,94668.71
2018-07-10T10:05:56.503Z,94666.39
2018-07-10T10:08:25.363Z,94675.11
2018-07-10T10:10:54.279Z,94670.59
2018-07-10T10:13:23.245Z,94670.04
2018-07-10T10:15:52.554Z,94668.64
2018-07-10T10:18:22.670Z,94660.61
2018-07-10T10:20:52.097Z,94674.59
2018-07-10T10:23:28.417Z,94685.84
2018-07-10T10:25:57.460Z,94669.64
2018-07-10T10:28:26.902Z,94680.41
2018-07-10T10:30:56.004Z,94672.64
2018-07-10T10:33:25.096Z,94680.17
2018-07-10T10:35:54.462Z,94674.86
2018-07-10T10:38:24.530Z,94670.07
2018-07-10T10:40:54.835Z,94668.45
2018-07-10T10:43:30.663Z,94669.17
2018-07-10T10:45:59.572Z,94668.94
2018-07-10T10:48:28.572Z,94667.09
2018-07-10T10:50:57.473Z,94676.67
2018-07-10T10:53:27.082Z,94681.23
2018-07-10T10:55:55.980Z,94675.13
2018-07-10T10:58:25.000Z,94686.06
2018-07-10T11:00:54.236Z,94680.45
2018-07-10T11:03:23.231Z,94668.16
2018-07-10T11:05:52.600Z,94669.98
2018-07-10T11:08:23.071Z,94672.31
2018-07-10T11:10:52.255Z,94674.13
2018-07-10T11:13:21.230Z,94677.38
2018-07-10T11:15:50.745Z,94681.84
2018-07-10T11:18:32.660Z,94663.37
2018-07-10T11:21:05.852Z,94654.55
2018-07-10T11:23:41.559Z,94659.52
2018-07-10T11:26:12.789Z,94654.01
2018-07-10T11:28:41.711Z,94642.31
2018-07-10T11:31:10.948Z,94640.48
2018-07-10T11:33:39.889Z,94633.23
2018-07-10T11:36:08.857Z,94635.84
2018-07-10T11:38:37.779Z,94647.66
2018-07-10T11:41:06.799Z,94641.34
2018-07-10T11:43:35.795Z,94634.87
2018-07-10T11:46:04.796Z,94636.22
2018-07-10T11:48:33.817Z,94633.86
2018-07-10T11:51:02.746Z,94640.55
2018-07-10T11:53:31.637Z,94636.84
2018-07-10T11:56:00.626Z,94640.84
2018-07-10T11:58:29.567Z,94640.85
2018-07-10T12:03:27.214Z,94645.08
2018-07-10T12:05:56.245Z,94650.95
2018-07-10T12:08:25.153Z,94658.08
2018-07-10T12:11:31.875Z,94651.56
2018-07-10T12:14:04.711Z,94654.44
2018-07-10T12:16:34.193Z,94647.17
2018-07-10T12:19:03.474Z,94668.02
2018-07-10T12:21:32.398Z,94662.50
2018-07-10T12:24:01.386Z,94652.14
2018-07-10T12:26:30.331Z,94661.98
2018-07-10T12:28:59.299Z,94659.03
2018-07-10T12:31:28.597Z,94658.98
2018-07-10T12:33:57.525Z,94660.80
2018-07-10T12:36:26.468Z,94661.97
2018-07-10T12:38:55.377Z,94673.78
2018-07-10T12:41:24.302Z,94684.02
2018-07-10T12:43:53.181Z,94667.73
2018-07-10T12:46:22.038Z,94665.81
2018-07-10T12:48:50.889Z,94672.23
2018-07-10T12:51:19.738Z,94674.45
2018-07-10T12:53:48.630Z,94675.58
2018-07-10T12:56:18.478Z,94682.56
2018-07-10T12:58:47.599Z,94673.78
2018-07-10T13:01:17.635Z,94660.16
2018-07-10T13:03:47.155Z,94655.83
2018-07-10T13:06:16.018Z,94669.64
2018-07-10T13:08:44.919Z,94660.55
2018-07-10T13:11:14.143Z,94669.33
2018-07-10T13:13:43.037Z,94670.72
2018-07-10T13:16:11.989Z,94658.23
2018-07-10T13:18:42.070Z,94660.07
2018-07-10T13:21:11.035Z,94668.84
2018-07-10T13:23:40.265Z,94660.30
2018-07-10T13:26:09.235Z,94665.90
2018-07-10T13:28:38.837Z,94670.72
2018-07-10T13:31:07.719Z,94658.97
2018-07-10T13:33:36.599Z,94665.94
2018-07-10T13:36:05.832Z,94655.23
2018-07-10T13:38:35.039Z,94654.91
2018-07-10T13:41:03.921Z,94655.45
2018-07-10T13:43:32.806Z,94668.81
2018-07-10T13:46:02.137Z,94663.98
2018-07-10T13:48:31.044Z,94671.47
2018-07-10T13:50:59.964Z,94672.04
2018-07-10T13:53:28.804Z,94656.55
2018-07-10T13:55:57.689Z,94668.30
2018-07-10T13:58:29.227Z,94664.04
2018-07-10T14:01:08.890Z,94665.17
2018-07-10T14:03:38.042Z,94664.88
2018-07-10T14:06:07.226Z,94661.64
2018-07-10T14:08:36.211Z,94657.09
2018-07-10T14:11:05.144Z,94660.52
2018-07-10T14:13:34.115Z,94689.13
2018-07-10T14:16:03.283Z,94677.12
2018-07-10T14:18:32.236Z,94662.73
2018-07-10T14:21:06.991Z,94667.23
2018-07-10T14:23:36.255Z,94661.67
2018-07-10T14:26:05.897Z,94661.37
2018-07-10T14:28:34.923Z,94654.96
2018-07-10T14:31:03.870Z,94664.83
2018-07-10T14:33:32.770Z,94650.90
2018-07-10T14:36:01.701Z,94666.92
2018-07-10T14:38:31.259Z,94646.32
2018-07-10T14:41:05.025Z,94652.38
2018-07-10T14:43:35.478Z,94666.83
2018-07-10T14:46:08.874Z,94663.09
2018-07-10T14:48:43.203Z,94660.91
2018-07-10T14:51:12.288Z,94656.16
2018-07-10T14:53:41.545Z,94657.00
2018-07-10T14:56:10.530Z,94647.81
2018-07-10T14:58:39.462Z,94654.55
2018-07-10T15:01:08.979Z,94672.27
2018-07-10T15:03:37.818Z,94672.30
2018-07-10T15:06:06.762Z,94659.00
2018-07-10T15:08:35.763Z,94663.23
2018-07-10T15:11:04.651Z,94654.11
2018-07-10T15:14:06.521Z,94656.28
2018-07-10T15:16:40.660Z,94658.42
2018-07-10T15:19:09.880Z,94662.73
2018-07-10T15:21:39.376Z,94664.38
2018-07-10T15:24:09.490Z,94651.33
2018-07-10T15:26:38.420Z,94650.50
2018-07-10T15:29:07.331Z,94659.23
2018-07-10T15:31:36.553Z,94672.84
2018-07-10T15:34:05.369Z,94672.08
2018-07-10T15:36:34.261Z,94667.28
2018-07-10T15:39:05.197Z,94664.40
2018-07-10T15:41:34.309Z,94680.44
2018-07-10T15:44:03.473Z,94669.78
2018-07-10T15:46:32.693Z,94671.41
2018-07-10T15:49:01.603Z,94679.92
2018-07-10T15:51:30.736Z,94677.52
2018-07-10T15:53:59.973Z,94679.65
2018-07-10T15:56:29.162Z,94672.73
2018-07-10T15:58:58.894Z,94674.33
2018-07-10T16:01:28.115Z,94667.94
2018-07-10T16:03:57.141Z,94678.58
2018-07-10T16:06:26.383Z,94676.47
2018-07-10T16:09:00.782Z,94684.19
2018-07-10T16:11:30.212Z,94685.54
2018-07-10T16:14:00.418Z,94679.39
2018-07-10T16:16:29.362Z,94684.43
2018-07-10T16:19:03.226Z,94689.23
2018-07-10T16:22:05.827Z,94683.91
2018-07-10T16:24:43.947Z,94695.67
2018-07-10T16:27:12.830Z,94690.36
2018-07-10T16:29:41.741Z,94696.22
2018-07-10T16:32:10.670Z,94694.32
2018-07-10T16:34:39.574Z,94693.00
2018-07-10T16:37:08.416Z,94695.11
2018-07-10T16:39:37.357Z,94691.66
2018-07-10T16:42:11.738Z,94693.56
2018-07-10T16:44:42.654Z,94696.75
2018-07-10T16:47:23.462Z,94692.21
2018-07-10T16:49:52.398Z,94695.14
2018-07-10T16:52:32.999Z,94701.28
2018-07-10T16:55:01.914Z,94705.00
2018-07-10T16:57:30.831Z,94710.36
2018-07-10T17:00:00.101Z,94714.32
2018-07-10T17:02:29.240Z,94710.58
2018-07-10T17:04:58.988Z,94711.91
2018-07-10T17:07:28.670Z,94704.73
2018-07-10T17:09:58.086Z,94708.45
2018-07-10T17:12:28.243Z,94710.58
2018-07-10T17:14:58.297Z,94715.11
2018-07-10T17:17:27.979Z,94708.44
2018-07-10T17:19:57.182Z,94711.90
2018-07-10T17:22:30.286Z,94716.69
2018-07-10T17:24:59.422Z,94712.95
2018-07-10T17:27:35.495Z,94713.48
2018-07-10T17:30:06.460Z,94715.86
2018-07-10T17:32:36.995Z,94713.20
2018-07-10T17:35:09.768Z,94717.72
2018-07-10T17:37:46.079Z,94718.78
2018-07-10T17:40:21.484Z,94721.95
2018-07-10T17:42:51.944Z,94719.00
2018-07-10T17:45:24.317Z,94723.55
2018-07-10T17:47:53.245Z,94725.68
2018-07-10T17:50:22.229Z,94722.41
2018-07-10T17:52:51.491Z,94718.95
2018-07-10T17:55:24.333Z,94717.86
2018-07-10T17:58:02.637Z,94722.12
2018-07-10T18:00:31.651Z,94727.16
2018-07-10T18:03:00.591Z,94723.91
2018-07-10T18:05:29.391Z,94723.92
2018-07-10T18:07:58.350Z,94720.16
2018-07-10T18:10:27.633Z,94720.94
2018-07-10T18:12:56.854Z,94730.23
2018-07-10T18:15:25.941Z,94727.02
2018-07-10T18:17:55.064Z,94739.50
2018-07-10T18:20:23.986Z,94734.69
2018-07-10T18:22:52.910Z,94734.14
2018-07-10T18:25:22.060Z,94736.78
2018-07-10T18:27:50.946Z,94741.05
2018-07-10T18:30:20.233Z,94742.91
2018-07-10T18:32:49.258Z,94750.31
2018-07-10T18:35:18.313Z,94754.03
2018-07-10T18:37:47.222Z,94755.59
2018-07-10T18:40:16.873Z,94761.44
2018-07-10T18:42:45.980Z,94764.70
2018-07-10T18:45:14.915Z,94766.02
2018-07-10T18:47:44.149Z,94775.35
2018-07-10T18:50:13.299Z,94767.07
2018-07-10T18:52:42.191Z,94771.92
2018-07-10T18:55:11.088Z,94772.14
2018-07-10T18:58:16.567Z,94778.52
2018-07-10T19:01:26.282Z,94775.59
2018-07-10T19:03:55.233Z,94776.31
2018-07-10T19:06:24.753Z,94777.87
2018-07-10T19:08:53.684Z,94780.75
2018-07-10T19:11:26.481Z,94783.94
2018-07-10T19:13:58.225Z,94783.91
2018-07-10T19:16:27.123Z,94780.70
2018-07-10T19:19:01.261Z,94779.12
2018-07-10T19:21:31.414Z,94777.68
2018-07-10T19:24:03.514Z,94777.41
2018-07-10T19:26:32.510Z,94779.45
2018-07-10T19:29:23.081Z,94788.75
2018-07-10T19:31:52.568Z,94789.21
2018-07-10T19:34:21.446Z,94787.08
2018-07-10T19:36:50.384Z,94791.56
2018-07-10T19:39:19.762Z,94789.39
2018-07-10T19:41:48.759Z,94784.92
2018-07-10T19:44:17.752Z,94783.55
2018-07-10T19:46:46.648Z,94787.33
2018-07-10T19:49:17.516Z,94789.67
2018-07-10T19:51:49.440Z,94789.67
2018-07-10T19:54:18.494Z,94791.00
2018-07-10T19:56:47.786Z,94794.47
2018-07-10T19:59:18.223Z,94795.23
2018-07-10T20:01:53.734Z,94805.06
2018-07-10T20:04:30.613Z,94799.46
2018-07-10T20:07:08.197Z,94796.80
2018-07-10T20:09:46.069Z,94791.18
2018-07-10T20:12:15.681Z,94795.66
2018-07-10T20:14:54.536Z,94792.72
2018-07-10T20:17:25.927Z,94793.21
2018-07-10T20:20:06.979Z,94798.00
2018-07-10T20:25:04.577Z,94804.01
2018-07-10T20:27:43.415Z,94800.79
2018-07-10T20:30:21.489Z,94804.17
2018-07-10T20:33:58.316Z,94805.27
2018-07-10T20:36:27.385Z,94810.14
2018-07-10T20:38:58.609Z,94817.02
2018-07-10T20:41:35.495Z,94815.94
2018-07-10T20:44:07.113Z,94812.72
2018-07-10T20:46:45.520Z,94810.30
2018-07-10T20:49:17.598Z,94811.86
2018-07-10T20:52:05.008Z,94811.06
2018-07-10T20:54:51.852Z,94817.45
2018-07-10T20:57:41.121Z,94816.09
2018-07-10T21:00:17.224Z,94810.22
2018-07-10T21:16:47.146Z,94823.86
2018-07-10T21:19:27.457Z,94825.71
2018-07-10T21:23:05.562Z,94826.76
2018-07-10T21:25:52.703Z,94824.09
2018-07-10T21:28:34.143Z,94827.80
2018-07-10T21:31:29.458Z,94829.08
2018-07-10T21:34:08.329Z,94826.71
2018-07-10T21:36:54.505Z,94826.11
2018-07-10T21:41:34.694Z,94825.30
2018-07-10T21:45:21.846Z,94823.45
2018-07-10T21:48:04.050Z,94822.45
2018-07-10T21:50:40.825Z,94819.23
2018-07-10T21:53:10.463Z,94825.38
2018-07-10T21:55:39.320Z,94817.94
2018-07-10T21:58:08.264Z,94817.86
2018-07-10T22:00:47.689Z,94824.20
2018-07-10T22:03:16.576Z,94824.97
2018-07-10T22:05:45.448Z,94826.53
2018-07-10T22:08:14.360Z,94814.27
2018-07-10T22:10:43.233Z,94816.59
2018-07-10T22:13:12.161Z,94820.30
2018-07-10T22:15:41.568Z,94824.31
2018-07-10T22:18:10.612Z,94821.38
2018-07-10T22:20:39.586Z,94817.11
2018-07-10T22:23:08.527Z,94815.45
2018-07-10T22:25:37.444Z,94813.52
2018-07-10T22:28:06.300Z,94818.06
2018-07-10T22:30:40.536Z,94815.41
2018-07-10T22:33:09.437Z,94814.33
2018-07-10T22:35:38.379Z,94810.62
2018-07-10T22:38:07.351Z,94810.81
2018-07-10T22:40:36.253Z,94806.36
2018-07-10T22:43:05.133Z,94803.91
2018-07-10T22:45:34.041Z,94799.68
2018-07-10T22:48:03.006Z,94797.61
2018-07-10T22:50:31.931Z,94797.92
2018-07-10T22:53:01.776Z,94798.45
2018-07-10T22:55:32.643Z,94793.14
2018-07-10T22:58:09.662Z,94796.83
2018-07-10T23:00:39.676Z,94800.69
2018-07-10T23:03:16.750Z,94798.54
2018-07-10T23:05:46.869Z,94802.67
2018-07-10T23:08:17.130Z,94797.89
2018-07-10T23:10:46.906Z,94803.42
2018-07-10T23:13:16.687Z,94805.83
2018-07-10T23:15:46.183Z,94803.08
2018-07-10T23:18:15.535Z,94810.95
2018-07-10T23:20:44.380Z,94814.69
2018-07-10T23:23:13.273Z,94820.50
2018-07-10T23:25:42.205Z,94817.17
2018-07-10T23:28:11.063Z,94819.94
2018-07-10T23:30:41.401Z,94822.30
2018-07-10T23:33:12.708Z,94821.27
2018-07-10T23:35:42.712Z,94820.98
2018-07-10T23:39:25.670Z,94817.98
2018-07-10T23:42:04.189Z,94808.89
2018-07-10T23:44:38.182Z,94809.93
2018-07-10T23:47:27.322Z,94810.33
2018-07-10T23:50:19.106Z,94814.59
2018-07-10T23:53:53.303Z,94818.34
2018-07-10T23:56:22.498Z,94820.81
2018-07-10T23:58:51.686Z,94818.34
